Tug Colum — J — position and weather

sailwx.info

Track history (hours):
 
Tides and Currents Weather Stations Pressure Air Temp Water Temp Dewpoint Dewpoint Depression Visibility Wind Speed Wind Dir Waves Ship Positions

Tug Colum

Last reported at 2017-Sep-18 13:28 UTC. Time now 2017-Sep-22 02:51 UTC.
Position N 31°34' E 121°19'.

MMSI: 336487207.

Date/timePositionNaut miles runAvg speedWind from/ knotsBaromVisibWave heightAir tempDewpointWater temp
2017-Sep-18 13:28N 31°34' E 121°19'11 5.9
2017-Sep-18 11:39N 31°27' E 121°29'1 3.9
2017-Sep-18 11:29N 31°27' E 121°29'4 3.6
2017-Sep-18 10:22N 31°23' E 121°30'8 4.6
2017-Sep-18 08:38N 31°15' E 121°31'  
2017-Sep-15 21:22N 22°59' E 112°59'1 3.0
2017-Sep-15 20:56N 22°58' E 112°60'1 3.1
2017-Sep-15 20:29N 22°56' E 113°00'2 2.4
2017-Sep-15 19:50N 22°56' E 113°02'2 3.1
2017-Sep-15 19:18N 22°55' E 113°03'1 3.1
2017-Sep-15 18:57N 22°54' E 113°04'1 2.9
2017-Sep-15 18:29N 22°54' E 113°06'1 2.6
2017-Sep-15 17:59N 22°53' E 113°07'1 2.5
2017-Sep-15 17:29N 22°54' E 113°07'1 2.7
2017-Sep-15 17:00N 22°54' E 113°08'2 3.1
2017-Sep-15 16:21N 22°54' E 113°10'1 3.0
2017-Sep-15 16:00N 22°54' E 113°11'2 3.0
2017-Sep-15 15:30N 22°54' E 113°13'2 3.3
2017-Sep-15 15:00N 22°54' E 113°15'2 3.7
2017-Sep-15 14:30N 22°54' E 113°17'2 3.4
2017-Sep-15 14:00N 22°53' E 113°18'2 4.0
2017-Sep-15 13:30N 22°54' E 113°21'2 4.2
2017-Sep-15 13:00N 22°54' E 113°23'2 4.0
2017-Sep-15 12:30N 22°55' E 113°25'2 4.2
2017-Sep-15 12:01N 22°55' E 113°27'2 4.2
2017-Sep-15 11:30N 22°54' E 113°29'2 4.3
2017-Sep-15 11:00N 22°53' E 113°31'2 4.9
2017-Sep-15 10:31N 22°52' E 113°34'3 5.0
2017-Sep-15 10:00N 22°50' E 113°35'3 5.1
2017-Sep-15 09:30N 22°48' E 113°37'2 4.5
2017-Sep-15 09:00N 22°46' E 113°38'2 4.3
2017-Sep-15 08:26N 22°44' E 113°40'2 4.8
2017-Sep-15 07:58N 22°42' E 113°41'2 0.2
2017-Sep-14 16:50N 22°39' E 113°41'2 5.5
2017-Sep-14 16:30N 22°41' E 113°41'3 5.4
2017-Sep-14 15:59N 22°44' E 113°40'3 5.7
2017-Sep-14 15:30N 22°46' E 113°38'3 6.0
2017-Sep-14 15:00N 22°49' E 113°36'3 5.9
2017-Sep-14 14:30N 22°51' E 113°34'3 5.7
2017-Sep-14 14:01N 22°53' E 113°32'3 5.7
2017-Sep-14 13:30N 22°54' E 113°29'3 5.5
2017-Sep-14 13:00N 22°55' E 113°26'7 5.0
2017-Sep-14 11:31N 22°53' E 113°18'1 4.9
2017-Sep-14 11:21N 22°53' E 113°17'5 4.9
2017-Sep-14 10:16N 22°54' E 113°12'2 5.5
2017-Sep-14 09:58N 22°54' E 113°10'3 5.2
2017-Sep-14 09:24N 22°54' E 113°07'665812007.8
2017-Sep-14 08:51N 05°38' E 000°01'0 0.0
2017-Sep-14 08:30N 05°38' E 000°01'0 0.0
2017-Sep-14 08:00N 05°38' E 000°01'0 0.0
2017-Sep-14 07:30N 05°38' E 000°01'0 0.0
2017-Sep-14 07:00N 05°38' E 000°01'0 0.0
2017-Sep-14 06:30N 05°38' E 000°01'0 0.0
2017-Sep-14 06:00N 05°38' E 000°01'0 0.0
2017-Sep-14 05:30N 05°38' E 000°01'0 0.0
2017-Sep-14 05:00N 05°38' E 000°01'0 0.0
2017-Sep-14 04:30N 05°38' E 000°01'0 0.0
2017-Sep-14 04:00N 05°38' E 000°01'0 0.0
2017-Sep-14 03:30N 05°38' E 000°01'0 0.0
2017-Sep-14 03:00N 05°38' E 000°01'0 0.0
2017-Sep-14 02:30N 05°38' E 000°01'0 0.0
2017-Sep-14 02:00N 05°38' E 000°01'0 0.0
2017-Sep-14 01:30N 05°38' E 000°01'0 0.0
2017-Sep-14 01:00N 05°38' E 000°01'0 0.0
2017-Sep-14 00:30N 05°38' E 000°01'0 0.0
2017-Sep-14 00:00N 05°38' E 000°01'0 0.0
2017-Sep-13 23:30N 05°38' E 000°01'0 0.0
2017-Sep-13 23:00N 05°38' E 000°01'0 0.0
2017-Sep-13 22:30N 05°38' E 000°01'0 0.0
2017-Sep-13 22:00N 05°38' E 000°01'0 0.0
2017-Sep-13 21:30N 05°38' E 000°01'0 0.0
2017-Sep-13 21:00N 05°38' E 000°01'0 0.0
2017-Sep-13 20:30N 05°38' E 000°01'0 0.0
2017-Sep-13 20:00N 05°38' E 000°01'0 0.0
2017-Sep-13 19:30N 05°38' E 000°01'0 0.0
2017-Sep-13 19:00N 05°38' E 000°01'0 0.0
2017-Sep-13 18:30N 05°38' E 000°01'0 0.0
2017-Sep-13 18:00N 05°38' E 000°01'0 0.0
2017-Sep-13 17:30N 05°38' E 000°01'0 0.0
2017-Sep-13 17:00N 05°38' E 000°01'0 0.0
2017-Sep-13 16:30N 05°38' E 000°01'0 0.0
2017-Sep-13 16:00N 05°38' E 000°01'0 0.0
2017-Sep-13 15:30N 05°38' E 000°01'0 0.0
2017-Sep-13 15:00N 05°38' E 000°01'0 0.0
2017-Sep-13 14:30N 05°38' E 000°01'0 0.0
2017-Sep-13 14:00N 05°38' E 000°01'0 0.0
2017-Sep-13 13:30N 05°38' E 000°01'0 0.0
2017-Sep-13 13:00N 05°38' E 000°01'0 0.0
2017-Sep-13 12:30N 05°38' E 000°01'0 0.0
2017-Sep-13 12:00N 05°38' E 000°01'0 0.0
2017-Sep-13 11:30N 05°38' E 000°01'0 0.0
2017-Sep-13 11:00N 05°38' E 000°01'0 0.0
2017-Sep-13 10:30N 05°38' E 000°01'0 0.0
2017-Sep-13 10:00N 05°38' E 000°01'0 0.0
2017-Sep-13 09:30N 05°38' E 000°01'0 0.0
2017-Sep-13 09:00N 05°38' E 000°01'0 0.0
2017-Sep-13 08:30N 05°38' E 000°01'0 0.0
2017-Sep-13 08:00N 05°38' E 000°01'0 0.0
2017-Sep-13 07:30N 05°38' E 000°01'0 0.0
2017-Sep-13 07:00N 05°38' E 000°01'0 0.0
2017-Sep-13 06:30N 05°38' E 000°01'0 0.0
2017-Sep-13 06:00N 05°38' E 000°01'0 0.0
2017-Sep-13 05:30N 05°38' E 000°01'0 0.0
2017-Sep-13 05:00N 05°38' E 000°01'0 0.0
2017-Sep-13 04:30N 05°38' E 000°01'0 0.0
2017-Sep-13 04:00N 05°38' E 000°01'0 0.0
2017-Sep-13 03:30N 05°38' E 000°01'0 0.0
2017-Sep-13 03:00N 05°38' E 000°01'0 0.0
2017-Sep-13 02:30N 05°38' E 000°01'0 0.0
2017-Sep-13 02:00N 05°38' E 000°01'0 0.0
2017-Sep-13 01:30N 05°38' E 000°01'0 0.0
2017-Sep-13 01:00N 05°38' E 000°01'0 0.0
2017-Sep-13 00:30N 05°38' E 000°01'0 0.0
2017-Sep-13 00:00N 05°38' E 000°01'0 0.0
2017-Sep-12 23:30N 05°38' E 000°01'0 0.0
2017-Sep-12 23:00N 05°38' E 000°01'0 0.0
2017-Sep-12 22:30N 05°38' E 000°01'0 0.0
2017-Sep-12 22:00N 05°38' E 000°01'0 0.0
2017-Sep-12 21:30N 05°38' E 000°01'0 0.0
2017-Sep-12 21:00N 05°38' E 000°01'0 0.0
2017-Sep-12 20:30N 05°38' E 000°01'0 0.0
2017-Sep-12 20:00N 05°38' E 000°01'0 0.0
2017-Sep-12 19:30N 05°38' E 000°01'0 0.0
2017-Sep-12 19:00N 05°38' E 000°01'0 0.0
2017-Sep-12 18:30N 05°38' E 000°01'0 0.0
2017-Sep-12 18:00N 05°38' E 000°01'0 0.0
2017-Sep-12 17:30N 05°38' E 000°01'0 0.0
2017-Sep-12 17:00N 05°38' E 000°01'0 0.0
2017-Sep-12 16:30N 05°38' E 000°01'0 0.0
2017-Sep-12 16:00N 05°38' E 000°01'0 0.0
2017-Sep-12 15:30N 05°38' E 000°01'0 0.0
2017-Sep-12 15:00N 05°38' E 000°01'0 0.0
2017-Sep-12 14:30N 05°38' E 000°01'0 0.0
2017-Sep-12 14:00N 05°38' E 000°01'0 0.0
2017-Sep-12 13:30N 05°38' E 000°01'0 0.0
2017-Sep-12 13:00N 05°38' E 000°01'0 0.0
2017-Sep-12 12:30N 05°38' E 000°01'0 0.0
2017-Sep-12 12:00N 05°38' E 000°01'0 0.0
2017-Sep-12 11:30N 05°38' E 000°01'0 0.0
2017-Sep-12 11:00N 05°38' E 000°01'0 0.0
2017-Sep-12 10:30N 05°38' E 000°01'0 0.0
2017-Sep-12 10:00N 05°38' E 000°01'0 0.0
2017-Sep-12 09:30N 05°38' E 000°01'0 0.0
2017-Sep-12 09:00N 05°38' E 000°01'0 0.0
2017-Sep-12 08:30N 05°38' E 000°01'0 0.0
2017-Sep-12 08:00N 05°38' E 000°01'0 0.0
2017-Sep-12 07:30N 05°38' E 000°01'0 0.0
2017-Sep-12 07:00N 05°38' E 000°01'0 0.0
2017-Sep-12 06:30N 05°38' E 000°01'0 0.0
2017-Sep-12 06:00N 05°38' E 000°01'0 0.0
2017-Sep-12 05:30N 05°38' E 000°01'0 0.0
2017-Sep-12 05:00N 05°38' E 000°01'0 0.0
2017-Sep-12 04:30N 05°38' E 000°01'0 0.0
2017-Sep-12 04:00N 05°38' E 000°01'0 0.0
2017-Sep-12 03:30N 05°38' E 000°01'0 0.0
2017-Sep-12 03:00N 05°38' E 000°01'0 0.0
2017-Sep-12 02:30N 05°38' E 000°01'0 0.0
2017-Sep-12 02:00N 05°38' E 000°01'0 0.0
2017-Sep-12 01:30N 05°38' E 000°01'0 0.0
2017-Sep-12 01:00N 05°38' E 000°01'0 0.0
2017-Sep-12 00:30N 05°38' E 000°01'0 0.0
2017-Sep-12 00:00N 05°38' E 000°01'0 0.0
2017-Sep-11 23:30N 05°38' E 000°01'0 0.0
2017-Sep-11 23:00N 05°38' E 000°01'0 0.0
2017-Sep-11 22:30N 05°38' E 000°01'0 0.0
2017-Sep-11 22:00N 05°38' E 000°01'0 0.0
2017-Sep-11 21:30N 05°38' E 000°01'0 0.0
2017-Sep-11 21:00N 05°38' E 000°01'0 0.0
2017-Sep-11 20:30N 05°38' E 000°01'0 0.0
2017-Sep-11 20:00N 05°38' E 000°01'0 0.0
2017-Sep-11 19:30N 05°38' E 000°01'0 0.0
2017-Sep-11 19:00N 05°38' E 000°01'0 0.0
2017-Sep-11 18:30N 05°38' E 000°01'0 0.0
2017-Sep-11 18:00N 05°38' E 000°01'0 0.0
2017-Sep-11 17:30N 05°38' E 000°01'0 0.0
2017-Sep-11 17:00N 05°38' E 000°01'0 0.0
2017-Sep-11 16:30N 05°38' E 000°01'0 0.0
2017-Sep-11 16:00N 05°38' E 000°01'0 0.0
2017-Sep-11 15:30N 05°38' E 000°01'0 0.0
2017-Sep-11 15:00N 05°38' E 000°01'0 0.5
2017-Sep-11 14:30N 05°38' E 000°01'1 2.0
2017-Sep-11 14:00N 05°37' E 000°01'0 0.8
2017-Sep-11 13:30N 05°37' E 000°01'3 7.0
2017-Sep-11 13:00N 05°34' W 000°02'510.2
2017-Sep-11 12:31N 05°30' W 000°05'510.0
2017-Sep-11 12:00N 05°26' W 000°07'5 9.8
2017-Sep-11 11:30N 05°22' W 000°10'6 9.7
2017-Sep-11 10:51N 05°17' W 000°14'122 8.8
2017-Sep-10 20:57N 04°30' W 002°07'4 8.6
2017-Sep-10 20:29N 04°29' W 002°11'4 9.2
2017-Sep-10 20:00N 04°28' W 002°16'5 9.1
2017-Sep-10 19:29N 04°27' W 002°20'5 9.0
2017-Sep-10 18:59N 04°27' W 002°25'4 8.9
2017-Sep-10 18:30N 04°26' W 002°29'5 9.1
2017-Sep-10 18:00N 04°27' W 002°33'5 9.1
2017-Sep-10 17:30N 04°26' W 002°38'5 9.4
2017-Sep-10 17:00N 04°26' W 002°43'5 9.5
2017-Sep-10 16:29N 04°26' W 002°48'6870211.4
2017-Sep-09 07:59N 22°59' E 113°31'  
Track history (hours):
 
Tides and Currents Weather Stations Pressure Air Temp Water Temp Dewpoint Dewpoint Depression Visibility Wind Speed Wind Dir Waves Ship Positions

Tug Colum

Last reported at 2017-Sep-18 13:28 UTC. Time now 2017-Sep-22 02:51 UTC.
Position N 31°34' E 121°19'.

MMSI: 336487207.

Date/timePositionNaut miles runAvg speedWind from/ knotsBaromVisibWave heightAir tempDewpointWater temp
2017-Sep-18 13:28N 31°34' E 121°19'11 5.9
2017-Sep-18 11:39N 31°27' E 121°29'1 3.9
2017-Sep-18 11:29N 31°27' E 121°29'4 3.6
2017-Sep-18 10:22N 31°23' E 121°30'8 4.6
2017-Sep-18 08:38N 31°15' E 121°31'  
2017-Sep-15 21:22N 22°59' E 112°59'1 3.0
2017-Sep-15 20:56N 22°58' E 112°60'1 3.1
2017-Sep-15 20:29N 22°56' E 113°00'2 2.4
2017-Sep-15 19:50N 22°56' E 113°02'2 3.1
2017-Sep-15 19:18N 22°55' E 113°03'1 3.1
2017-Sep-15 18:57N 22°54' E 113°04'1 2.9
2017-Sep-15 18:29N 22°54' E 113°06'1 2.6
2017-Sep-15 17:59N 22°53' E 113°07'1 2.5
2017-Sep-15 17:29N 22°54' E 113°07'1 2.7
2017-Sep-15 17:00N 22°54' E 113°08'2 3.1
2017-Sep-15 16:21N 22°54' E 113°10'1 3.0
2017-Sep-15 16:00N 22°54' E 113°11'2 3.0
2017-Sep-15 15:30N 22°54' E 113°13'2 3.3
2017-Sep-15 15:00N 22°54' E 113°15'2 3.7
2017-Sep-15 14:30N 22°54' E 113°17'2 3.4
2017-Sep-15 14:00N 22°53' E 113°18'2 4.0
2017-Sep-15 13:30N 22°54' E 113°21'2 4.2
2017-Sep-15 13:00N 22°54' E 113°23'2 4.0
2017-Sep-15 12:30N 22°55' E 113°25'2 4.2
2017-Sep-15 12:01N 22°55' E 113°27'2 4.2
2017-Sep-15 11:30N 22°54' E 113°29'2 4.3
2017-Sep-15 11:00N 22°53' E 113°31'2 4.9
2017-Sep-15 10:31N 22°52' E 113°34'3 5.0
2017-Sep-15 10:00N 22°50' E 113°35'3 5.1
2017-Sep-15 09:30N 22°48' E 113°37'2 4.5
2017-Sep-15 09:00N 22°46' E 113°38'2 4.3
2017-Sep-15 08:26N 22°44' E 113°40'2 4.8
2017-Sep-15 07:58N 22°42' E 113°41'2 0.2
2017-Sep-14 16:50N 22°39' E 113°41'2 5.5
2017-Sep-14 16:30N 22°41' E 113°41'3 5.4
2017-Sep-14 15:59N 22°44' E 113°40'3 5.7
2017-Sep-14 15:30N 22°46' E 113°38'3 6.0
2017-Sep-14 15:00N 22°49' E 113°36'3 5.9
2017-Sep-14 14:30N 22°51' E 113°34'3 5.7
2017-Sep-14 14:01N 22°53' E 113°32'3 5.7
2017-Sep-14 13:30N 22°54' E 113°29'3 5.5
2017-Sep-14 13:00N 22°55' E 113°26'7 5.0
2017-Sep-14 11:31N 22°53' E 113°18'1 4.9
2017-Sep-14 11:21N 22°53' E 113°17'5 4.9
2017-Sep-14 10:16N 22°54' E 113°12'2 5.5
2017-Sep-14 09:58N 22°54' E 113°10'3 5.2
2017-Sep-14 09:24N 22°54' E 113°07'665812007.8
2017-Sep-14 08:51N 05°38' E 000°01'0 0.0
2017-Sep-14 08:30N 05°38' E 000°01'0 0.0
2017-Sep-14 08:00N 05°38' E 000°01'0 0.0
2017-Sep-14 07:30N 05°38' E 000°01'0 0.0
2017-Sep-14 07:00N 05°38' E 000°01'0 0.0
2017-Sep-14 06:30N 05°38' E 000°01'0 0.0
2017-Sep-14 06:00N 05°38' E 000°01'0 0.0
2017-Sep-14 05:30N 05°38' E 000°01'0 0.0
2017-Sep-14 05:00N 05°38' E 000°01'0 0.0
2017-Sep-14 04:30N 05°38' E 000°01'0 0.0
2017-Sep-14 04:00N 05°38' E 000°01'0 0.0
2017-Sep-14 03:30N 05°38' E 000°01'0 0.0
2017-Sep-14 03:00N 05°38' E 000°01'0 0.0
2017-Sep-14 02:30N 05°38' E 000°01'0 0.0
2017-Sep-14 02:00N 05°38' E 000°01'0 0.0
2017-Sep-14 01:30N 05°38' E 000°01'0 0.0
2017-Sep-14 01:00N 05°38' E 000°01'0 0.0
2017-Sep-14 00:30N 05°38' E 000°01'0 0.0
2017-Sep-14 00:00N 05°38' E 000°01'0 0.0
2017-Sep-13 23:30N 05°38' E 000°01'0 0.0
2017-Sep-13 23:00N 05°38' E 000°01'0 0.0
2017-Sep-13 22:30N 05°38' E 000°01'0 0.0
2017-Sep-13 22:00N 05°38' E 000°01'0 0.0
2017-Sep-13 21:30N 05°38' E 000°01'0 0.0
2017-Sep-13 21:00N 05°38' E 000°01'0 0.0
2017-Sep-13 20:30N 05°38' E 000°01'0 0.0
2017-Sep-13 20:00N 05°38' E 000°01'0 0.0
2017-Sep-13 19:30N 05°38' E 000°01'0 0.0
2017-Sep-13 19:00N 05°38' E 000°01'0 0.0
2017-Sep-13 18:30N 05°38' E 000°01'0 0.0
2017-Sep-13 18:00N 05°38' E 000°01'0 0.0
2017-Sep-13 17:30N 05°38' E 000°01'0 0.0
2017-Sep-13 17:00N 05°38' E 000°01'0 0.0
2017-Sep-13 16:30N 05°38' E 000°01'0 0.0
2017-Sep-13 16:00N 05°38' E 000°01'0 0.0
2017-Sep-13 15:30N 05°38' E 000°01'0 0.0
2017-Sep-13 15:00N 05°38' E 000°01'0 0.0
2017-Sep-13 14:30N 05°38' E 000°01'0 0.0
2017-Sep-13 14:00N 05°38' E 000°01'0 0.0
2017-Sep-13 13:30N 05°38' E 000°01'0 0.0
2017-Sep-13 13:00N 05°38' E 000°01'0 0.0
2017-Sep-13 12:30N 05°38' E 000°01'0 0.0
2017-Sep-13 12:00N 05°38' E 000°01'0 0.0
2017-Sep-13 11:30N 05°38' E 000°01'0 0.0
2017-Sep-13 11:00N 05°38' E 000°01'0 0.0
2017-Sep-13 10:30N 05°38' E 000°01'0 0.0
2017-Sep-13 10:00N 05°38' E 000°01'0 0.0
2017-Sep-13 09:30N 05°38' E 000°01'0 0.0
2017-Sep-13 09:00N 05°38' E 000°01'0 0.0
2017-Sep-13 08:30N 05°38' E 000°01'0 0.0
2017-Sep-13 08:00N 05°38' E 000°01'0 0.0
2017-Sep-13 07:30N 05°38' E 000°01'0 0.0
2017-Sep-13 07:00N 05°38' E 000°01'0 0.0
2017-Sep-13 06:30N 05°38' E 000°01'0 0.0
2017-Sep-13 06:00N 05°38' E 000°01'0 0.0
2017-Sep-13 05:30N 05°38' E 000°01'0 0.0
2017-Sep-13 05:00N 05°38' E 000°01'0 0.0
2017-Sep-13 04:30N 05°38' E 000°01'0 0.0
2017-Sep-13 04:00N 05°38' E 000°01'0 0.0
2017-Sep-13 03:30N 05°38' E 000°01'0 0.0
2017-Sep-13 03:00N 05°38' E 000°01'0 0.0
2017-Sep-13 02:30N 05°38' E 000°01'0 0.0
2017-Sep-13 02:00N 05°38' E 000°01'0 0.0
2017-Sep-13 01:30N 05°38' E 000°01'0 0.0
2017-Sep-13 01:00N 05°38' E 000°01'0 0.0
2017-Sep-13 00:30N 05°38' E 000°01'0 0.0
2017-Sep-13 00:00N 05°38' E 000°01'0 0.0
2017-Sep-12 23:30N 05°38' E 000°01'0 0.0
2017-Sep-12 23:00N 05°38' E 000°01'0 0.0
2017-Sep-12 22:30N 05°38' E 000°01'0 0.0
2017-Sep-12 22:00N 05°38' E 000°01'0 0.0
2017-Sep-12 21:30N 05°38' E 000°01'0 0.0
2017-Sep-12 21:00N 05°38' E 000°01'0 0.0
2017-Sep-12 20:30N 05°38' E 000°01'0 0.0
2017-Sep-12 20:00N 05°38' E 000°01'0 0.0
2017-Sep-12 19:30N 05°38' E 000°01'0 0.0
2017-Sep-12 19:00N 05°38' E 000°01'0 0.0
2017-Sep-12 18:30N 05°38' E 000°01'0 0.0
2017-Sep-12 18:00N 05°38' E 000°01'0 0.0
2017-Sep-12 17:30N 05°38' E 000°01'0 0.0
2017-Sep-12 17:00N 05°38' E 000°01'0 0.0
2017-Sep-12 16:30N 05°38' E 000°01'0 0.0
2017-Sep-12 16:00N 05°38' E 000°01'0 0.0
2017-Sep-12 15:30N 05°38' E 000°01'0 0.0
2017-Sep-12 15:00N 05°38' E 000°01'0 0.0
2017-Sep-12 14:30N 05°38' E 000°01'0 0.0
2017-Sep-12 14:00N 05°38' E 000°01'0 0.0
2017-Sep-12 13:30N 05°38' E 000°01'0 0.0
2017-Sep-12 13:00N 05°38' E 000°01'0 0.0
2017-Sep-12 12:30N 05°38' E 000°01'0 0.0
2017-Sep-12 12:00N 05°38' E 000°01'0 0.0
2017-Sep-12 11:30N 05°38' E 000°01'0 0.0
2017-Sep-12 11:00N 05°38' E 000°01'0 0.0
2017-Sep-12 10:30N 05°38' E 000°01'0 0.0
2017-Sep-12 10:00N 05°38' E 000°01'0 0.0
2017-Sep-12 09:30N 05°38' E 000°01'0 0.0
2017-Sep-12 09:00N 05°38' E 000°01'0 0.0
2017-Sep-12 08:30N 05°38' E 000°01'0 0.0
2017-Sep-12 08:00N 05°38' E 000°01'0 0.0
2017-Sep-12 07:30N 05°38' E 000°01'0 0.0
2017-Sep-12 07:00N 05°38' E 000°01'0 0.0
2017-Sep-12 06:30N 05°38' E 000°01'0 0.0
2017-Sep-12 06:00N 05°38' E 000°01'0 0.0
2017-Sep-12 05:30N 05°38' E 000°01'0 0.0
2017-Sep-12 05:00N 05°38' E 000°01'0 0.0
2017-Sep-12 04:30N 05°38' E 000°01'0 0.0
2017-Sep-12 04:00N 05°38' E 000°01'0 0.0
2017-Sep-12 03:30N 05°38' E 000°01'0 0.0
2017-Sep-12 03:00N 05°38' E 000°01'0 0.0
2017-Sep-12 02:30N 05°38' E 000°01'0 0.0
2017-Sep-12 02:00N 05°38' E 000°01'0 0.0
2017-Sep-12 01:30N 05°38' E 000°01'0 0.0
2017-Sep-12 01:00N 05°38' E 000°01'0 0.0
2017-Sep-12 00:30N 05°38' E 000°01'0 0.0
2017-Sep-12 00:00N 05°38' E 000°01'0 0.0
2017-Sep-11 23:30N 05°38' E 000°01'0 0.0
2017-Sep-11 23:00N 05°38' E 000°01'0 0.0
2017-Sep-11 22:30N 05°38' E 000°01'0 0.0
2017-Sep-11 22:00N 05°38' E 000°01'0 0.0
2017-Sep-11 21:30N 05°38' E 000°01'0 0.0
2017-Sep-11 21:00N 05°38' E 000°01'0 0.0
2017-Sep-11 20:30N 05°38' E 000°01'0 0.0
2017-Sep-11 20:00N 05°38' E 000°01'0 0.0
2017-Sep-11 19:30N 05°38' E 000°01'0 0.0
2017-Sep-11 19:00N 05°38' E 000°01'0 0.0
2017-Sep-11 18:30N 05°38' E 000°01'0 0.0
2017-Sep-11 18:00N 05°38' E 000°01'0 0.0
2017-Sep-11 17:30N 05°38' E 000°01'0 0.0
2017-Sep-11 17:00N 05°38' E 000°01'0 0.0
2017-Sep-11 16:30N 05°38' E 000°01'0 0.0
2017-Sep-11 16:00N 05°38' E 000°01'0 0.0
2017-Sep-11 15:30N 05°38' E 000°01'0 0.0
2017-Sep-11 15:00N 05°38' E 000°01'0 0.5
2017-Sep-11 14:30N 05°38' E 000°01'1 2.0
2017-Sep-11 14:00N 05°37' E 000°01'0 0.8
2017-Sep-11 13:30N 05°37' E 000°01'3 7.0
2017-Sep-11 13:00N 05°34' W 000°02'510.2
2017-Sep-11 12:31N 05°30' W 000°05'510.0
2017-Sep-11 12:00N 05°26' W 000°07'5 9.8
2017-Sep-11 11:30N 05°22' W 000°10'6 9.7
2017-Sep-11 10:51N 05°17' W 000°14'122 8.8
2017-Sep-10 20:57N 04°30' W 002°07'4 8.6
2017-Sep-10 20:29N 04°29' W 002°11'4 9.2
2017-Sep-10 20:00N 04°28' W 002°16'5 9.1
2017-Sep-10 19:29N 04°27' W 002°20'5 9.0
2017-Sep-10 18:59N 04°27' W 002°25'4 8.9
2017-Sep-10 18:30N 04°26' W 002°29'5 9.1
2017-Sep-10 18:00N 04°27' W 002°33'5 9.1
2017-Sep-10 17:30N 04°26' W 002°38'5 9.4
2017-Sep-10 17:00N 04°26' W 002°43'5 9.5
2017-Sep-10 16:29N 04°26' W 002°48'6870211.4
2017-Sep-09 07:59N 22°59' E 113°31'  

Dump ship's entire track history